Terminal Aerodrome Forecast
Issued by NWS Cleveland, OH

Home | Current Version | Previous Version | Graphics & Text | Print | Product List | Glossary On
Versions: 1 2 3 4 5 6 7 8 9 10 11 12 13 14 15 16 17 18 19
000
FTUS41 KCLE 251600 AAA
TAFTOL
TAF AMD
KTOL 251604Z 2516/2612 21020G32KT P6SM VCSH BKN050 OVC120
     FM252000 24018G28KT P6SM SCT050 BKN250
     FM260000 22010KT P6SM SCT040 BKN250
     FM260900 22005KT P6SM BKN018=

USA.gov is the U.S. government's official web portal to all federal, state and local government web resources and services.